Time;durP1;ratioP1;P1;durP2;ratioP2;P2;SDS_P1;SDS_P2;PMS_P1;PMS_P2;Temp;Humidity;BMP_temperature;BMP_pressure;BME280_temperature;BME280_humidity;BME280_pressure;Samples;Min_cycle;Max_cycle;Signal;HPM_P1;HPM_P2
2022/10/07 00:00:52;;;;;;;5.05;1.73;;;;;;;;;;4974070;28;20037;-67
2022/10/07 00:03:19;;;;;;;8.10;2.28;;;;;;;;;;4968760;28;20110;-67
2022/10/07 00:05:45;;;;;;;6.70;2.15;;;;;;;;;;4969746;28;20031;-69
2022/10/07 00:08:11;;;;;;;7.80;2.22;;;;;;;;;;4962929;28;20042;-68
2022/10/07 00:10:39;;;;;;;5.35;1.75;;;;;;;;;;4970976;28;20031;-68
2022/10/07 00:13:05;;;;;;;8.63;2.22;;;;;;;;;;4974020;28;20026;-67
2022/10/07 00:15:31;;;;;;;8.30;2.10;;;;;;;;;;4973883;28;20117;-70
2022/10/07 00:17:56;;;;;;;5.75;1.83;;;;;;;;;;4973870;28;20113;-68
2022/10/07 00:20:22;;;;;;;6.38;1.80;;;;;;;;;;4967128;28;20489;-69
2022/10/07 00:22:47;;;;;;;11.65;2.47;;;;;;;;;;4953236;28;20122;-68
2022/10/07 00:25:13;;;;;;;7.47;1.80;;;;;;;;;;4972899;28;20126;-67
2022/10/07 00:27:38;;;;;;;5.60;1.75;;;;;;;;;;4971679;28;20027;-68
2022/10/07 00:30:04;;;;;;;8.63;1.90;;;;;;;;;;4973803;28;20034;-67
2022/10/07 00:32:29;;;;;;;5.18;2.00;;;;;;;;;;4973701;28;20113;-67
2022/10/07 00:34:55;;;;;;;8.18;2.00;;;;;;;;;;4973503;28;20030;-67
2022/10/07 00:37:20;;;;;;;8.88;2.20;;;;;;;;;;4973460;28;20050;-68
2022/10/07 00:39:46;;;;;;;9.75;2.15;;;;;;;;;;4972999;28;20027;-68
2022/10/07 00:42:12;;;;;;;3.58;1.60;;;;;;;;;;4964126;28;20063;-67
2022/10/07 00:44:43;;;;;;;9.48;2.20;;;;;;;;;;4963512;28;20019;-67
2022/10/07 00:47:26;;;;;;;5.80;2.10;;;;;;;;;;4969057;28;20027;-66
2022/10/07 00:49:54;;;;;;;5.82;1.60;;;;;;;;;;4970638;28;20023;-69
2022/10/07 00:52:23;;;;;;;7.32;2.10;;;;;;;;;;4971861;28;20037;-67
2022/10/07 00:54:52;;;;;;;12.27;2.03;;;;;;;;;;4971412;28;20057;-67
2022/10/07 00:57:20;;;;;;;7.18;1.80;;;;;;;;;;4970095;28;20019;-69
2022/10/07 00:59:46;;;;;;;6.85;1.80;;;;;;;;;;4971590;28;20480;-69
2022/10/07 01:02:11;;;;;;;8.02;1.90;;;;;;;;;;4971685;28;20038;-69
2022/10/07 01:04:37;;;;;;;8.82;2.22;;;;;;;;;;4971116;28;20037;-69
2022/10/07 01:07:03;;;;;;;6.63;1.90;;;;;;;;;;4971141;28;20029;-66
2022/10/07 01:09:28;;;;;;;6.78;1.70;;;;;;;;;;4971119;28;20030;-69
2022/10/07 01:12:02;;;;;;;8.05;2.05;;;;;;;;;;4971663;28;20026;-68
2022/10/07 01:14:38;;;;;;;8.18;2.20;;;;;;;;;;4973048;28;20027;-70
2022/10/07 01:17:30;;;;;;;9.77;2.97;;;;;;;;;;4973193;28;20038;-70
2022/10/07 01:20:28;;;;;;;6.97;2.38;;;;;;;;;;4974785;28;20368;-67
2022/10/07 01:23:03;;;;;;;6.40;2.30;;;;;;;;;;4989244;28;20108;-67
2022/10/07 01:25:57;;;;;;;6.38;2.40;;;;;;;;;;4992374;28;20096;-67
2022/10/07 01:29:02;;;;;;;5.32;2.20;;;;;;;;;;4992389;28;20034;-68
2022/10/07 01:31:36;;;;;;;7.60;2.15;;;;;;;;;;4993143;28;20027;-68
2022/10/07 01:34:05;;;;;;;11.30;2.92;;;;;;;;;;4993173;28;20364;-68
2022/10/07 01:36:35;;;;;;;8.57;2.60;;;;;;;;;;4993036;28;20463;-68
2022/10/07 01:39:06;;;;;;;8.30;2.45;;;;;;;;;;4993052;28;20041;-68
2022/10/07 01:41:35;;;;;;;9.68;2.55;;;;;;;;;;4993238;28;20352;-68
2022/10/07 01:44:01;;;;;;;7.32;2.22;;;;;;;;;;4992367;28;20065;-69
2022/10/07 01:46:27;;;;;;;7.20;2.35;;;;;;;;;;4983662;28;20031;-68
2022/10/07 01:48:53;;;;;;;5.78;2.42;;;;;;;;;;4971756;28;20416;-68
2022/10/07 01:51:26;;;;;;;5.07;2.22;;;;;;;;;;4953186;28;20524;-68
2022/10/07 01:54:03;;;;;;;7.85;2.85;;;;;;;;;;4954126;28;20032;-68
2022/10/07 01:56:53;;;;;;;8.57;2.30;;;;;;;;;;4954288;28;20110;-68
2022/10/07 01:59:39;;;;;;;8.30;2.00;;;;;;;;;;4954379;28;20023;-68
2022/10/07 02:02:33;;;;;;;9.55;2.38;;;;;;;;;;4954241;28;20027;-68
2022/10/07 02:05:14;;;;;;;9.25;2.28;;;;;;;;;;4914011;29;20044;-68
2022/10/07 02:07:51;;;;;;;;;;;;;;;;;;4914214;29;20054;-68
2022/10/07 02:10:31;;;;;;;7.07;2.38;;;;;;;;;;4916684;29;19926;-68
2022/10/07 02:13:29;;;;;;;7.22;2.88;;;;;;;;;;4916757;29;20060;-68
2022/10/07 02:16:15;;;;;;;13.57;3.33;;;;;;;;;;4912818;29;20040;-68
2022/10/07 02:18:47;;;;;;;9.50;3.08;;;;;;;;;;4917384;29;20459;-68
2022/10/07 02:21:13;;;;;;;9.60;2.15;;;;;;;;;;4930182;29;20035;-68
2022/10/07 02:23:42;;;;;;;7.72;2.58;;;;;;;;;;4936437;29;20118;-68
2022/10/07 02:26:12;;;;;;;7.80;3.05;;;;;;;;;;4936538;29;20227;-70
2022/10/07 02:28:40;;;;;;;5.82;2.85;;;;;;;;;;4936417;29;20071;-68
2022/10/07 02:31:09;;;;;;;13.13;2.85;;;;;;;;;;4936486;29;20137;-69
2022/10/07 02:33:37;;;;;;;10.65;2.20;;;;;;;;;;4936334;29;20044;-69
2022/10/07 02:36:09;;;;;;;9.23;2.72;;;;;;;;;;4935769;29;20059;-68
2022/10/07 02:38:37;;;;;;;6.80;2.47;;;;;;;;;;4936333;29;20035;-68
2022/10/07 02:41:13;;;;;;;9.05;2.40;;;;;;;;;;4940594;29;20115;-68
2022/10/07 02:43:47;;;;;;;9.05;2.55;;;;;;;;;;4955663;29;20062;-70
2022/10/07 02:46:30;;;;;;;10.20;2.80;;;;;;;;;;4956665;28;20107;-69
2022/10/07 02:48:59;;;;;;;10.38;2.83;;;;;;;;;;4956305;28;20381;-68
2022/10/07 02:51:32;;;;;;;8.88;2.70;;;;;;;;;;4956511;28;20023;-68
2022/10/07 02:54:02;;;;;;;14.45;2.97;;;;;;;;;;4957170;28;20024;-68
2022/10/07 02:56:29;;;;;;;9.45;3.05;;;;;;;;;;4957176;28;20030;-68
2022/10/07 02:58:55;;;;;;;9.23;2.70;;;;;;;;;;4957083;28;20027;-68
2022/10/07 03:01:26;;;;;;;11.05;3.38;;;;;;;;;;4957190;28;20027;-68
2022/10/07 03:03:53;;;;;;;8.02;2.90;;;;;;;;;;4956981;28;20023;-68
2022/10/07 03:06:18;;;;;;;10.20;3.22;;;;;;;;;;4957070;28;20066;-68
2022/10/07 03:08:46;;;;;;;9.93;2.53;;;;;;;;;;4955638;29;20062;-68
2022/10/07 03:11:12;;;;;;;5.88;2.38;;;;;;;;;;4955918;28;20067;-68
2022/10/07 03:13:37;;;;;;;7.75;2.40;;;;;;;;;;4955997;28;20051;-68
2022/10/07 03:16:04;;;;;;;7.38;2.80;;;;;;;;;;4954828;29;20495;-68
2022/10/07 03:18:29;;;;;;;8.98;2.47;;;;;;;;;;4955857;28;20067;-69
2022/10/07 03:20:58;;;;;;;8.85;2.58;;;;;;;;;;4966737;28;20500;-68
2022/10/07 03:23:25;;;;;;;9.48;2.38;;;;;;;;;;4975801;28;20081;-68
2022/10/07 03:25:52;;;;;;;12.02;2.97;;;;;;;;;;4976098;28;20062;-68
2022/10/07 03:28:22;;;;;;;11.50;2.80;;;;;;;;;;4975790;28;20031;-69
2022/10/07 03:30:48;;;;;;;10.20;2.70;;;;;;;;;;4975978;28;20083;-69
2022/10/07 03:33:18;;;;;;;9.45;2.63;;;;;;;;;;4975161;28;20041;-67
2022/10/07 03:35:44;;;;;;;9.68;2.75;;;;;;;;;;4974908;28;20023;-69
2022/10/07 03:38:10;;;;;;;9.60;2.63;;;;;;;;;;4974909;28;20039;-69
2022/10/07 03:40:38;;;;;;;9.60;2.60;;;;;;;;;;4974863;28;20033;-68
2022/10/07 03:43:06;;;;;;;5.93;2.70;;;;;;;;;;4974668;28;20559;-68
2022/10/07 03:45:34;;;;;;;7.05;2.40;;;;;;;;;;4974782;28;20523;-68
2022/10/07 03:47:59;;;;;;;10.50;2.80;;;;;;;;;;4974327;28;20031;-68
2022/10/07 03:50:26;;;;;;;6.43;2.47;;;;;;;;;;4974673;28;20428;-68
2022/10/07 03:52:51;;;;;;;12.13;3.05;;;;;;;;;;4974536;28;20027;-68
2022/10/07 03:55:18;;;;;;;13.85;3.55;;;;;;;;;;4974622;28;20030;-69
2022/10/07 03:57:49;;;;;;;8.57;3.03;;;;;;;;;;4974547;28;20249;-68
2022/10/07 04:00:16;;;;;;;7.10;2.78;;;;;;;;;;4974326;28;20026;-68
2022/10/07 04:02:41;;;;;;;7.30;2.63;;;;;;;;;;4974123;28;20126;-68
2022/10/07 04:05:07;;;;;;;8.63;3.15;;;;;;;;;;4974310;28;20118;-68
2022/10/07 04:07:33;;;;;;;10.10;3.00;;;;;;;;;;4974178;28;20035;-67
2022/10/07 04:09:59;;;;;;;6.55;2.58;;;;;;;;;;4974246;28;20034;-68
2022/10/07 04:12:24;;;;;;;11.20;2.67;;;;;;;;;;4974302;28;20054;-68
2022/10/07 04:14:49;;;;;;;6.22;2.90;;;;;;;;;;4973954;28;20125;-67
2022/10/07 04:17:18;;;;;;;7.43;2.72;;;;;;;;;;4973772;28;20023;-68
2022/10/07 04:19:44;;;;;;;7.45;2.97;;;;;;;;;;4975405;28;20043;-68
2022/10/07 04:22:10;;;;;;;7.53;2.78;;;;;;;;;;4993447;28;20172;-68
2022/10/07 04:24:35;;;;;;;7.03;2.80;;;;;;;;;;4994206;28;20061;-67
2022/10/07 04:27:05;;;;;;;9.73;3.20;;;;;;;;;;4994131;28;20034;-68
2022/10/07 04:29:31;;;;;;;7.93;2.50;;;;;;;;;;4994185;28;20120;-68
2022/10/07 04:31:57;;;;;;;11.75;3.47;;;;;;;;;;4993564;28;20026;-69
2022/10/07 04:34:23;;;;;;;11.07;3.40;;;;;;;;;;4994085;28;20105;-68
2022/10/07 04:36:50;;;;;;;8.77;3.13;;;;;;;;;;4994179;28;20034;-68
2022/10/07 04:39:16;;;;;;;8.52;3.17;;;;;;;;;;4993980;28;20054;-69
2022/10/07 04:41:41;;;;;;;12.00;3.42;;;;;;;;;;4994070;28;20365;-68
2022/10/07 04:44:07;;;;;;;6.07;3.17;;;;;;;;;;4993109;28;20054;-69
2022/10/07 04:46:32;;;;;;;8.90;3.28;;;;;;;;;;4992703;28;20037;-68
2022/10/07 04:48:58;;;;;;;9.32;3.60;;;;;;;;;;4992970;28;20038;-68
2022/10/07 04:51:23;;;;;;;7.47;3.47;;;;;;;;;;4992855;28;20034;-68
2022/10/07 04:53:53;;;;;;;11.32;3.80;;;;;;;;;;4993713;28;20042;-68
2022/10/07 04:56:18;;;;;;;14.40;3.47;;;;;;;;;;4993867;28;20032;-68
2022/10/07 04:58:44;;;;;;;7.63;3.08;;;;;;;;;;4993767;28;20097;-68
2022/10/07 05:01:10;;;;;;;12.15;3.40;;;;;;;;;;4993518;28;20018;-68
2022/10/07 05:03:40;;;;;;;5.95;3.47;;;;;;;;;;4993666;28;20038;-68
2022/10/07 05:06:06;;;;;;;;;;;;;;;;;;4993673;28;20057;-68
2022/10/07 05:08:32;;;;;;;8.90;3.25;;;;;;;;;;4992858;28;19961;-68
2022/10/07 05:11:00;;;;;;;12.23;3.80;;;;;;;;;;4992722;28;20057;-68
2022/10/07 05:13:26;;;;;;;10.65;3.58;;;;;;;;;;4992613;28;20061;-68
2022/10/07 05:15:56;;;;;;;7.10;3.40;;;;;;;;;;4992120;28;20430;-68
2022/10/07 05:18:25;;;;;;;12.82;4.18;;;;;;;;;;4993069;28;20026;-69
2022/10/07 05:20:51;;;;;;;9.68;3.88;;;;;;;;;;4993303;28;20173;-67
2022/10/07 05:23:19;;;;;;;8.18;3.83;;;;;;;;;;4993278;28;20514;-67
2022/10/07 05:25:45;;;;;;;11.55;4.32;;;;;;;;;;4993372;28;20031;-68
2022/10/07 05:28:13;;;;;;;8.43;3.88;;;;;;;;;;4992981;28;20041;-67
2022/10/07 05:30:39;;;;;;;13.23;4.05;;;;;;;;;;4993000;28;20034;-68
2022/10/07 05:33:06;;;;;;;10.75;4.03;;;;;;;;;;4993518;28;20031;-69
2022/10/07 05:35:33;;;;;;;10.48;3.75;;;;;;;;;;4993375;28;20058;-69
2022/10/07 05:37:59;;;;;;;13.10;5.00;;;;;;;;;;4993336;28;20472;-69
2022/10/07 05:40:25;;;;;;;11.32;4.10;;;;;;;;;;4993413;28;20065;-69
2022/10/07 05:42:51;;;;;;;13.68;4.75;;;;;;;;;;4992501;28;20058;-68
2022/10/07 05:45:18;;;;;;;14.32;4.45;;;;;;;;;;4996379;28;20018;-69
2022/10/07 05:47:43;;;;;;;10.63;4.03;;;;;;;;;;4995924;28;20069;-68
2022/10/07 05:50:09;;;;;;;9.70;3.90;;;;;;;;;;4996294;28;20070;-68
2022/10/07 05:52:35;;;;;;;8.88;3.63;;;;;;;;;;4996644;28;20034;-69
2022/10/07 05:55:00;;;;;;;15.00;4.30;;;;;;;;;;4997109;28;20030;-68
2022/10/07 05:57:26;;;;;;;15.10;4.47;;;;;;;;;;4996840;28;20034;-69
2022/10/07 05:59:51;;;;;;;11.25;4.10;;;;;;;;;;4996973;28;20026;-68
2022/10/07 06:02:17;;;;;;;10.50;3.95;;;;;;;;;;4997206;28;20108;-69
2022/10/07 06:04:45;;;;;;;9.32;3.75;;;;;;;;;;4996985;28;20022;-70
2022/10/07 06:07:11;;;;;;;8.38;4.20;;;;;;;;;;4996743;28;20035;-69
2022/10/07 06:15:08;;;;;;;11.43;4.38;;;;;;;;;;4996152;28;20034;-68
2022/10/07 06:17:34;;;;;;;8.00;4.18;;;;;;;;;;4995734;28;20092;-68
2022/10/07 06:19:59;;;;;;;7.88;3.85;;;;;;;;;;4995501;28;20057;-69
2022/10/07 06:22:25;;;;;;;9.98;4.22;;;;;;;;;;4995973;28;20378;-68
2022/10/07 06:24:55;;;;;;;9.77;4.10;;;;;;;;;;4996710;28;20045;-68
2022/10/07 06:27:21;;;;;;;13.70;4.05;;;;;;;;;;4996212;28;20030;-69
2022/10/07 06:29:46;;;;;;;14.63;4.20;;;;;;;;;;4996678;28;20035;-68
2022/10/07 06:32:12;;;;;;;11.75;4.28;;;;;;;;;;4996528;28;20033;-69
2022/10/07 06:34:37;;;;;;;10.80;5.40;;;;;;;;;;4996346;28;20130;-68
2022/10/07 06:37:02;;;;;;;8.70;4.00;;;;;;;;;;4996512;28;20085;-69
2022/10/07 06:39:28;;;;;;;11.93;3.83;;;;;;;;;;4996492;28;20486;-68
2022/10/07 06:41:55;;;;;;;9.00;3.60;;;;;;;;;;4995579;28;20027;-69
2022/10/07 06:44:20;;;;;;;6.75;2.88;;;;;;;;;;4995406;28;20041;-69
2022/10/07 06:46:46;;;;;;;7.47;3.13;;;;;;;;;;4995217;28;20030;-69
2022/10/07 06:49:11;;;;;;;7.97;3.00;;;;;;;;;;4995292;28;20038;-69
2022/10/07 06:51:36;;;;;;;9.68;3.20;;;;;;;;;;4995900;28;20415;-69
2022/10/07 06:54:02;;;;;;;9.45;3.85;;;;;;;;;;4995825;28;20026;-69
2022/10/07 06:56:28;;;;;;;8.00;3.30;;;;;;;;;;4995539;28;20030;-69
2022/10/07 06:58:53;;;;;;;11.70;5.05;;;;;;;;;;4995972;28;20081;-68
2022/10/07 07:01:19;;;;;;;9.95;4.20;;;;;;;;;;4995851;28;20026;-65
2022/10/07 07:03:44;;;;;;;7.68;2.80;;;;;;;;;;4995854;28;20117;-70
2022/10/07 07:06:10;;;;;;;7.25;2.70;;;;;;;;;;4995912;28;20034;-69
2022/10/07 07:08:36;;;;;;;12.93;3.00;;;;;;;;;;4995629;28;20030;-66
2022/10/07 07:13:57;;;;;;;8.20;3.10;;;;;;;;;;4995316;28;20137;-66
2022/10/07 07:16:23;;;;;;;9.02;3.40;;;;;;;;;;4974304;28;20038;-66
2022/10/07 07:19:02;;;;;;;11.57;4.00;;;;;;;;;;4972424;28;20133;-66
2022/10/07 07:21:29;;;;;;;8.32;3.50;;;;;;;;;;4990293;28;20395;-67
2022/10/07 07:23:54;;;;;;;8.52;2.80;;;;;;;;;;4987612;28;20511;-67
2022/10/07 07:26:20;;;;;;;11.90;3.50;;;;;;;;;;4965416;28;20059;-68
2022/10/07 07:29:13;;;;;;;11.90;4.30;;;;;;;;;;4964453;28;20055;-67
2022/10/07 07:31:39;;;;;;;8.73;3.33;;;;;;;;;;4963453;28;20062;-67
2022/10/07 07:34:10;;;;;;;9.50;3.30;;;;;;;;;;4968817;28;20538;-67
2022/10/07 07:36:36;;;;;;;11.48;3.45;;;;;;;;;;4954805;29;20039;-67
2022/10/07 07:39:09;;;;;;;7.47;3.20;;;;;;;;;;4956061;28;20035;-66
2022/10/07 07:41:37;;;;;;;10.40;2.83;;;;;;;;;;4956017;28;20038;-67
2022/10/07 07:44:04;;;;;;;15.50;3.75;;;;;;;;;;4955899;28;20035;-68
2022/10/07 07:46:37;;;;;;;8.52;3.60;;;;;;;;;;4954710;29;20039;-67
2022/10/07 07:49:03;;;;;;;9.40;3.45;;;;;;;;;;4954727;29;20038;-68
2022/10/07 07:51:30;;;;;;;11.95;3.50;;;;;;;;;;4965207;28;20400;-67
2022/10/07 07:53:55;;;;;;;7.63;2.55;;;;;;;;;;4965744;28;20117;-67
2022/10/07 07:56:21;;;;;;;6.55;3.08;;;;;;;;;;4960705;28;20166;-68
2022/10/07 07:58:47;;;;;;;9.30;2.97;;;;;;;;;;4955529;28;20020;-66
2022/10/07 08:01:16;;;;;;;10.05;2.90;;;;;;;;;;4957936;28;20037;-67
2022/10/07 08:03:44;;;;;;;8.43;2.38;;;;;;;;;;4960100;28;20370;-68
2022/10/07 08:06:11;;;;;;;6.00;2.50;;;;;;;;;;4955037;28;20042;-67
2022/10/07 08:08:37;;;;;;;11.93;3.08;;;;;;;;;;4955327;29;20082;-68
2022/10/07 08:11:15;;;;;;;10.52;3.03;;;;;;;;;;4955700;29;20043;-66
2022/10/07 08:13:42;;;;;;;9.00;2.80;;;;;;;;;;4955584;28;20027;-66
2022/10/07 08:16:11;;;;;;;6.78;2.50;;;;;;;;;;4955568;28;20141;-66
2022/10/07 08:18:40;;;;;;;8.02;2.60;;;;;;;;;;4955347;29;20051;-66
2022/10/07 08:21:06;;;;;;;8.85;3.08;;;;;;;;;;4980333;28;20104;-66
2022/10/07 08:23:34;;;;;;;6.22;2.50;;;;;;;;;;4993750;28;20475;-67
2022/10/07 08:26:00;;;;;;;7.85;3.00;;;;;;;;;;4983225;28;20495;-67
2022/10/07 08:28:26;;;;;;;6.78;2.25;;;;;;;;;;4974296;28;20030;-67
2022/10/07 08:30:53;;;;;;;9.50;2.47;;;;;;;;;;4974658;28;20026;-67
2022/10/07 08:33:21;;;;;;;7.32;2.85;;;;;;;;;;4974385;28;20093;-67
2022/10/07 08:36:00;;;;;;;10.00;2.78;;;;;;;;;;4974413;28;20031;-66
2022/10/07 08:38:37;;;;;;;10.13;3.00;;;;;;;;;;4974411;28;20487;-67
2022/10/07 08:41:35;;;;;;;7.07;2.58;;;;;;;;;;4974455;28;20031;-67
2022/10/07 08:44:31;;;;;;;8.02;2.40;;;;;;;;;;4974320;28;20494;-66
2022/10/07 08:46:59;;;;;;;6.65;2.17;;;;;;;;;;4973584;28;20057;-66
2022/10/07 08:49:45;;;;;;;7.07;2.60;;;;;;;;;;4974013;28;20035;-67
2022/10/07 08:52:49;;;;;;;8.07;2.55;;;;;;;;;;4969030;28;20047;-66
2022/10/07 08:55:35;;;;;;;9.73;2.60;;;;;;;;;;4917380;29;20126;-66
2022/10/07 08:58:29;;;;;;;11.55;2.38;;;;;;;;;;4933552;29;20526;-66
2022/10/07 09:01:23;;;;;;;7.00;2.30;;;;;;;;;;4921283;29;20514;-69
2022/10/07 09:03:50;;;;;;;8.05;2.50;;;;;;;;;;4876894;29;20108;-67
2022/10/07 09:06:41;;;;;;;6.45;1.95;;;;;;;;;;4876802;29;20045;-69
2022/10/07 09:09:23;;;;;;;8.15;2.00;;;;;;;;;;4876781;29;20081;-66
2022/10/07 09:11:51;;;;;;;8.15;2.10;;;;;;;;;;4876949;29;20048;-65
2022/10/07 09:14:22;;;;;;;3.90;1.80;;;;;;;;;;4876905;29;20033;-66
2022/10/07 09:16:50;;;;;;;7.00;2.00;;;;;;;;;;4876528;29;20036;-66
2022/10/07 09:19:28;;;;;;;6.60;1.80;;;;;;;;;;4875390;29;20083;-67
2022/10/07 09:22:01;;;;;;;7.57;1.77;;;;;;;;;;4894317;29;20053;-66
2022/10/07 09:24:29;;;;;;;8.07;1.92;;;;;;;;;;4895470;29;20029;-66
2022/10/07 09:26:59;;;;;;;6.07;1.90;;;;;;;;;;4895388;29;20060;-66
2022/10/07 09:29:29;;;;;;;11.77;1.98;;;;;;;;;;4894847;29;20115;-67
2022/10/07 09:31:55;;;;;;;6.38;2.05;;;;;;;;;;4895158;29;20127;-66
2022/10/07 09:34:26;;;;;;;10.88;2.60;;;;;;;;;;4895365;29;20036;-67
2022/10/07 09:37:18;;;;;;;8.60;2.22;;;;;;;;;;4895121;29;20037;-67
2022/10/07 09:39:44;;;;;;;7.05;2.13;;;;;;;;;;4900698;29;20028;-67
2022/10/07 09:42:32;;;;;;;9.25;2.20;;;;;;;;;;4954402;28;20035;-69
2022/10/07 09:45:01;;;;;;;6.60;2.50;;;;;;;;;;4954495;28;20035;-66
2022/10/07 09:47:35;;;;;;;6.75;2.20;;;;;;;;;;4954051;28;20037;-66
2022/10/07 09:50:01;;;;;;;5.53;1.90;;;;;;;;;;4954078;28;20035;-66
2022/10/07 09:52:29;;;;;;;8.88;2.33;;;;;;;;;;4954424;28;20075;-67
2022/10/07 09:55:28;;;;;;;8.85;2.22;;;;;;;;;;4954269;28;20057;-67
2022/10/07 09:58:01;;;;;;;5.65;1.95;;;;;;;;;;4954268;28;20031;-69
2022/10/07 10:00:28;;;;;;;10.27;1.95;;;;;;;;;;4954280;28;20027;-66
2022/10/07 10:03:01;;;;;;;7.95;2.05;;;;;;;;;;4954011;29;20032;-65
2022/10/07 10:05:29;;;;;;;8.07;2.15;;;;;;;;;;4953975;28;20400;-67
2022/10/07 10:07:59;;;;;;;6.25;2.03;;;;;;;;;;4954064;28;20032;-66
2022/10/07 10:10:32;;;;;;;11.27;2.60;;;;;;;;;;4954262;28;20031;-66
2022/10/07 10:13:00;;;;;;;4.07;1.67;;;;;;;;;;4954242;28;20089;-66
2022/10/07 10:15:28;;;;;;;10.32;2.40;;;;;;;;;;4953948;28;20111;-67
2022/10/07 10:17:55;;;;;;;8.07;2.08;;;;;;;;;;4954020;28;20035;-67
2022/10/07 10:20:30;;;;;;;10.05;2.08;;;;;;;;;;4966513;28;20444;-66
2022/10/07 10:22:57;;;;;;;5.97;1.60;;;;;;;;;;4991554;28;20027;-66
2022/10/07 10:29:27;;;;;;;6.50;2.20;;;;;;;;;;4991638;28;20140;-67
2022/10/07 10:32:02;;;;;;;7.85;2.30;;;;;;;;;;4974426;28;20397;-67
2022/10/07 10:34:45;;;;;;;7.18;1.83;;;;;;;;;;4937775;28;20047;-66
2022/10/07 10:37:17;;;;;;;6.43;2.15;;;;;;;;;;4935994;29;20079;-67
2022/10/07 10:40:06;;;;;;;10.43;2.10;;;;;;;;;;4935869;29;20023;-66
2022/10/07 10:42:51;;;;;;;8.95;2.17;;;;;;;;;;4935909;29;20047;-66
2022/10/07 10:45:38;;;;;;;10.75;2.30;;;;;;;;;;4860500;29;20049;-67
2022/10/07 10:48:40;;;;;;;6.47;2.33;;;;;;;;;;4860169;29;20361;-66
2022/10/07 10:51:43;;;;;;;8.48;2.40;;;;;;;;;;4860478;29;20140;-66
2022/10/07 10:54:30;;;;;;;7.63;1.90;;;;;;;;;;4860519;29;20106;-66
2022/10/07 10:57:28;;;;;;;6.22;1.95;;;;;;;;;;4860565;29;20046;-66
2022/10/07 11:00:06;;;;;;;5.38;1.92;;;;;;;;;;4863914;29;20080;-67
2022/10/07 11:02:37;;;;;;;8.18;1.75;;;;;;;;;;4878779;29;20049;-67
2022/10/07 11:05:12;;;;;;;5.63;1.98;;;;;;;;;;4878852;29;20036;-66
2022/10/07 11:08:00;;;;;;;5.28;1.52;;;;;;;;;;4878692;29;20435;-66
2022/10/07 11:10:55;;;;;;;7.57;2.30;;;;;;;;;;4878556;29;20554;-67
2022/10/07 11:13:47;;;;;;;4.47;1.50;;;;;;;;;;4878836;29;20397;-70
2022/10/07 11:16:23;;;;;;;5.18;1.50;;;;;;;;;;4878627;29;20065;-70
2022/10/07 11:19:05;;;;;;;6.30;1.70;;;;;;;;;;4878564;29;20045;-69
2022/10/07 11:21:39;;;;;;;11.35;1.70;;;;;;;;;;4906141;28;20518;-66
2022/10/07 11:24:23;;;;;;;5.63;1.73;;;;;;;;;;4995187;28;20555;-67
2022/10/07 11:27:12;;;;;;;5.97;1.65;;;;;;;;;;4995130;28;20019;-67
2022/10/07 11:29:59;;;;;;;7.45;1.52;;;;;;;;;;4995070;28;20518;-67
2022/10/07 11:33:12;;;;;;;6.22;1.42;;;;;;;;;;4994585;28;20057;-67
2022/10/07 11:35:56;;;;;;;4.72;1.50;;;;;;;;;;4995081;28;20065;-70
2022/10/07 11:38:30;;;;;;;14.55;3.15;;;;;;;;;;4994797;28;20396;-67
2022/10/07 11:41:13;;;;;;;6.57;1.80;;;;;;;;;;4994080;28;20030;-69
2022/10/07 11:43:47;;;;;;;8.85;2.50;;;;;;;;;;4994855;28;20121;-69
2022/10/07 11:46:35;;;;;;;7.97;1.63;;;;;;;;;;4994646;28;20034;-66
2022/10/07 11:49:13;;;;;;;12.30;2.10;;;;;;;;;;4993581;28;20436;-67
2022/10/07 11:51:51;;;;;;;5.88;1.80;;;;;;;;;;4994824;28;20100;-67
2022/10/07 11:54:20;;;;;;;7.35;1.92;;;;;;;;;;4994464;28;20030;-67
2022/10/07 11:56:49;;;;;;;4.82;1.75;;;;;;;;;;4987516;28;20027;-67
2022/10/07 11:59:41;;;;;;;5.95;1.77;;;;;;;;;;4976181;28;20038;-70
2022/10/07 12:02:28;;;;;;;5.88;1.80;;;;;;;;;;4975725;28;20030;-69
2022/10/07 12:04:58;;;;;;;5.00;1.60;;;;;;;;;;4976006;28;20034;-67
2022/10/07 12:07:35;;;;;;;6.55;1.70;;;;;;;;;;4975047;28;20089;-66
2022/10/07 12:10:01;;;;;;;8.63;1.90;;;;;;;;;;4975460;28;20027;-67
2022/10/07 12:12:42;;;;;;;4.80;1.48;;;;;;;;;;4975004;28;20106;-67
2022/10/07 12:15:26;;;;;;;4.40;1.50;;;;;;;;;;4974671;28;20050;-67
2022/10/07 12:18:04;;;;;;;4.55;1.52;;;;;;;;;;4974717;28;20046;-67
2022/10/07 12:20:34;;;;;;;5.13;1.48;;;;;;;;;;4982206;28;20077;-67
2022/10/07 12:25:58;;;;;;;6.22;1.88;;;;;;;;;;4994046;28;20039;-67
2022/10/07 12:28:39;;;;;;;7.45;1.77;;;;;;;;;;4981895;28;20034;-67
2022/10/07 12:31:14;;;;;;;5.40;1.70;;;;;;;;;;4974629;28;20110;-68
2022/10/07 12:34:07;;;;;;;7.55;1.98;;;;;;;;;;4974480;28;20409;-67
2022/10/07 12:36:32;;;;;;;7.18;1.80;;;;;;;;;;4974481;28;20186;-67
2022/10/07 12:38:58;;;;;;;7.72;1.83;;;;;;;;;;4974390;28;20066;-69
2022/10/07 12:41:29;;;;;;;5.18;1.65;;;;;;;;;;4974320;28;20467;-70
2022/10/07 12:44:12;;;;;;;5.93;1.63;;;;;;;;;;4973719;28;20039;-68
2022/10/07 12:46:41;;;;;;;9.73;2.45;;;;;;;;;;4974236;28;20027;-67
2022/10/07 12:49:13;;;;;;;6.00;1.75;;;;;;;;;;4974342;28;20611;-67
2022/10/07 12:51:39;;;;;;;7.13;1.70;;;;;;;;;;4973965;28;20031;-69
2022/10/07 12:54:19;;;;;;;5.65;1.80;;;;;;;;;;4973927;28;20023;-67
2022/10/07 12:56:46;;;;;;;4.03;1.57;;;;;;;;;;4973872;28;20035;-66
2022/10/07 13:02:42;;;;;;;9.07;1.90;;;;;;;;;;4973888;28;20084;-67
2022/10/07 13:05:35;;;;;;;5.43;1.75;;;;;;;;;;4973530;28;20089;-68
2022/10/07 13:08:21;;;;;;;5.07;1.70;;;;;;;;;;4971859;28;20393;-68
2022/10/07 13:10:59;;;;;;;6.07;2.00;;;;;;;;;;4973912;28;20027;-67
2022/10/07 13:13:50;;;;;;;4.45;1.60;;;;;;;;;;4973659;28;20034;-67
2022/10/07 13:16:26;;;;;;;15.25;2.15;;;;;;;;;;4973933;28;20027;-67
2022/10/07 13:19:09;;;;;;;6.20;1.67;;;;;;;;;;4973512;28;20051;-67
2022/10/07 13:22:14;;;;;;;5.75;1.70;;;;;;;;;;4980505;28;20041;-67
2022/10/07 13:24:45;;;;;;;4.53;1.70;;;;;;;;;;4933028;29;20038;-68
2022/10/07 13:27:18;;;;;;;8.05;2.00;;;;;;;;;;4932810;29;20044;-67
2022/10/07 13:29:45;;;;;;;6.40;1.95;;;;;;;;;;4932817;29;20066;-67
2022/10/07 13:32:14;;;;;;;4.45;1.80;;;;;;;;;;4932907;29;20163;-67
2022/10/07 13:34:42;;;;;;;4.83;1.70;;;;;;;;;;4928975;29;20040;-69
2022/10/07 13:37:33;;;;;;;6.65;1.80;;;;;;;;;;4929136;29;20478;-67
2022/10/07 13:40:24;;;;;;;7.03;1.90;;;;;;;;;;4928639;29;20130;-68
2022/10/07 13:42:54;;;;;;;4.57;1.83;;;;;;;;;;4928601;29;20035;-68
2022/10/07 13:45:19;;;;;;;6.95;1.75;;;;;;;;;;4928862;29;20639;-70
2022/10/07 13:47:48;;;;;;;4.15;1.70;;;;;;;;;;4928786;29;20138;-70
2022/10/07 13:50:25;;;;;;;10.52;2.05;;;;;;;;;;4928918;29;20609;-69
2022/10/07 13:52:52;;;;;;;5.55;1.65;;;;;;;;;;4928461;29;20039;-70
2022/10/07 13:55:37;;;;;;;5.93;2.05;;;;;;;;;;4928159;29;20035;-68
2022/10/07 13:58:05;;;;;;;4.97;1.63;;;;;;;;;;4928381;29;20454;-70
2022/10/07 14:00:32;;;;;;;7.13;2.22;;;;;;;;;;4954832;28;20141;-68
2022/10/07 14:03:00;;;;;;;6.32;1.55;;;;;;;;;;4969181;28;20030;-70
2022/10/07 14:05:28;;;;;;;9.50;1.67;;;;;;;;;;4971918;28;20073;-68
2022/10/07 14:08:14;;;;;;;4.03;2.00;;;;;;;;;;4973015;28;20081;-69
2022/10/07 14:10:48;;;;;;;8.95;2.25;;;;;;;;;;4972541;28;20027;-67
2022/10/07 14:13:15;;;;;;;4.88;1.70;;;;;;;;;;4975153;28;20110;-67
2022/10/07 14:15:46;;;;;;;4.95;2.13;;;;;;;;;;4976896;28;20030;-67
2022/10/07 14:18:15;;;;;;;5.05;1.70;;;;;;;;;;4976301;28;20027;-68
2022/10/07 14:20:50;;;;;;;5.97;1.85;;;;;;;;;;4985687;28;20070;-67
2022/10/07 14:23:30;;;;;;;5.43;1.80;;;;;;;;;;4996097;28;20030;-67
2022/10/07 14:26:01;;;;;;;5.13;1.60;;;;;;;;;;4995896;28;20376;-67
2022/10/07 14:28:28;;;;;;;5.18;1.70;;;;;;;;;;4996125;28;20026;-70
2022/10/07 14:37:12;;;;;;;4.38;1.50;;;;;;;;;;4995723;28;20030;-68
2022/10/07 14:39:55;;;;;;;11.23;2.28;;;;;;;;;;4995522;28;20033;-69
2022/10/07 14:42:29;;;;;;;3.83;1.70;;;;;;;;;;4977805;28;20035;-69
2022/10/07 14:44:56;;;;;;;5.82;1.58;;;;;;;;;;4964807;28;20039;-69
2022/10/07 14:47:23;;;;;;;7.05;1.98;;;;;;;;;;4975523;28;20484;-66
2022/10/07 14:49:53;;;;;;;5.72;2.00;;;;;;;;;;4976562;28;20030;-68
2022/10/07 14:52:36;;;;;;;4.95;1.55;;;;;;;;;;4976477;28;20031;-68
2022/10/07 14:55:11;;;;;;;5.28;2.00;;;;;;;;;;4964544;28;20150;-67
2022/10/07 14:57:36;;;;;;;7.57;1.60;;;;;;;;;;4957203;28;20027;-67
2022/10/07 15:00:03;;;;;;;5.05;1.73;;;;;;;;;;4957004;28;20038;-72
2022/10/07 15:02:29;;;;;;;3.10;1.58;;;;;;;;;;4957157;28;20127;-67
2022/10/07 15:04:54;;;;;;;7.00;1.70;;;;;;;;;;4956971;28;20090;-67
2022/10/07 15:07:20;;;;;;;11.40;2.50;;;;;;;;;;4956743;28;20068;-68
2022/10/07 15:09:46;;;;;;;4.72;1.63;;;;;;;;;;4956731;28;20039;-68
2022/10/07 15:12:14;;;;;;;4.32;1.52;;;;;;;;;;4956874;28;20506;-68
2022/10/07 15:14:40;;;;;;;4.68;1.60;;;;;;;;;;4957032;28;20024;-67
2022/10/07 15:17:06;;;;;;;4.75;1.50;;;;;;;;;;4956848;28;20038;-68
2022/10/07 15:19:32;;;;;;;7.97;1.63;;;;;;;;;;4956747;28;20055;-68
2022/10/07 15:21:58;;;;;;;4.32;1.80;;;;;;;;;;4975630;28;20031;-67
2022/10/07 15:24:24;;;;;;;2.88;1.70;;;;;;;;;;4975882;28;20041;-68
2022/10/07 15:26:49;;;;;;;11.30;1.80;;;;;;;;;;4975788;28;20019;-69
2022/10/07 15:29:15;;;;;;;5.15;1.70;;;;;;;;;;4975738;28;20476;-68
2022/10/07 15:31:42;;;;;;;8.02;1.92;;;;;;;;;;4975726;28;20101;-69
2022/10/07 15:34:12;;;;;;;6.63;2.00;;;;;;;;;;4975580;28;20033;-68